Time;durP1;ratioP1;P1;durP2;ratioP2;P2;SDS_P1;SDS_P2;PMS_P1;PMS_P2;Temp;Humidity;BMP_temperature;BMP_pressure;BME280_temperature;BME280_humidity;BME280_pressure;Samples;Min_cycle;Max_cycle;Signal;HPM_P1;HPM_P2
2021/12/10 00:00:17;;;;;;;;;;;-2.00;99.90;;;;;;5000242;28;19928;-89
2021/12/10 00:02:46;;;;;;;;;;;-2.00;99.90;;;;;;4984413;28;20359;-89
2021/12/10 00:05:22;;;;;;;;;;;-1.90;99.90;;;;;;4998490;28;19909;-89
2021/12/10 00:07:47;;;;;;;;;;;-1.90;99.90;;;;;;4999169;28;19906;-90
2021/12/10 00:10:15;;;;;;;;;;;-1.60;99.90;;;;;;4999771;28;19913;-90
2021/12/10 00:12:49;;;;;;;;;;;-1.20;99.90;;;;;;4998899;28;19913;-90
2021/12/10 00:15:14;;;;;;;;;;;-1.00;99.90;;;;;;4999660;28;19905;-90
2021/12/10 00:17:40;;;;;;;;;;;-0.80;99.90;;;;;;4998859;28;19905;-90
2021/12/10 00:20:07;;;;;;;;;;;-0.50;99.90;;;;;;5001874;28;19905;-90
2021/12/10 00:22:42;;;;;;;;;;;-0.40;99.90;;;;;;5001432;28;19909;-90
2021/12/10 00:25:09;;;;;;;;;;;-0.30;99.90;;;;;;4998976;28;19910;-90
2021/12/10 00:27:35;;;;;;;;;;;-0.20;99.90;;;;;;5056131;23;20644;-91
2021/12/10 00:30:24;;;;;;;;;;;-0.20;99.90;;;;;;5038898;28;19962;-92
2021/12/10 00:33:02;;;;;;;;;;;0.00;99.90;;;;;;5039025;28;19904;-92
2021/12/10 00:35:32;;;;;;;;;;;-0.10;99.90;;;;;;5039087;28;19908;-92
2021/12/10 00:37:58;;;;;;;;;;;-0.10;99.90;;;;;;5039237;28;19959;-92
2021/12/10 00:40:25;;;;;;;;;;;0.00;99.90;;;;;;5039002;28;20331;-91
2021/12/10 00:42:50;;;;;;;;;;;0.00;99.90;;;;;;5039202;28;20281;-91
2021/12/10 00:45:17;;;;;;;;;;;0.00;99.90;;;;;;5038547;28;19911;-91
2021/12/10 00:47:43;;;;;;;;;;;0.00;99.90;;;;;;5038621;28;19904;-91
2021/12/10 00:50:10;;;;;;;;;;;0.00;99.90;;;;;;5038716;28;19905;-92
2021/12/10 00:52:42;;;;;;;;;;;-0.20;99.90;;;;;;5038260;28;19904;-91
2021/12/10 00:55:11;;;;;;;;;;;-0.30;99.90;;;;;;5038872;28;19912;-91
2021/12/10 00:57:49;;;;;;;;;;;-0.20;99.90;;;;;;5038080;28;19905;-92
2021/12/10 01:00:19;;;;;;;;;;;-0.30;99.90;;;;;;5038946;28;20332;-92
2021/12/10 01:02:45;;;;;;;;;;;-0.30;99.90;;;;;;5038615;28;19904;-91
2021/12/10 01:05:11;;;;;;;;;;;-0.20;99.90;;;;;;5038607;28;19904;-92
2021/12/10 01:07:37;;;;;;;;;;;-0.20;99.90;;;;;;5039358;28;19996;-91
2021/12/10 01:10:09;;;;;;;;;;;0.00;99.90;;;;;;5038423;28;19909;-91
2021/12/10 01:12:40;;;;;;;;;;;0.10;99.90;;;;;;5039527;28;20339;-91
2021/12/10 01:26:58;;;;;;;;;;;-0.10;99.90;;;;;;5067467;28;19910;-92
2021/12/10 01:29:01;;;;;;;;;;;-0.20;99.90;;;;;;5051811;28;19920;-92
2021/12/10 01:31:32;;;;;;;;;;;-0.20;99.90;;;;;;5039827;28;19999;-91
2021/12/10 01:34:01;;;;;;;;;;;-0.10;99.90;;;;;;5038240;28;19909;-92
2021/12/10 01:36:31;;;;;;;;;;;0.00;99.90;;;;;;5037571;28;19987;-92
2021/12/10 01:38:56;;;;;;;;;;;-0.10;99.90;;;;;;5037831;28;19912;-91
2021/12/10 01:41:24;;;;;;;;;;;0.00;99.90;;;;;;5038172;28;20432;-92
2021/12/10 01:43:52;;;;;;;;;;;0.10;99.90;;;;;;5038225;28;19915;-91
2021/12/10 01:46:25;;;;;;;;;;;0.10;99.90;;;;;;5038340;28;20373;-92
2021/12/10 01:48:52;;;;;;;;;;;0.10;99.90;;;;;;5038496;28;20341;-91
2021/12/10 01:51:20;;;;;;;;;;;0.10;99.90;;;;;;5038336;28;19927;-92
2021/12/10 01:53:47;;;;;;;;;;;0.20;99.90;;;;;;5040702;28;19905;-92
2021/12/10 01:56:15;;;;;;;;;;;0.20;99.90;;;;;;5039389;28;19904;-91
2021/12/10 01:58:41;;;;;;;;;;;0.20;99.90;;;;;;5040946;28;19904;-91
2021/12/10 02:01:08;;;;;;;;;;;0.20;99.90;;;;;;5050195;28;19915;-91
2021/12/10 02:03:34;;;;;;;;;;;0.20;99.90;;;;;;5052492;28;19897;-91
2021/12/10 02:06:00;;;;;;;;;;;-0.10;99.90;;;;;;5050795;28;19967;-91
2021/12/10 02:08:35;;;;;;;;;;;-0.20;99.90;;;;;;5043489;28;20357;-91
2021/12/10 02:11:04;;;;;;;;;;;-0.40;99.90;;;;;;5038116;28;19970;-92
2021/12/10 02:13:38;;;;;;;;;;;-0.40;99.90;;;;;;5038196;28;19951;-91
2021/12/10 02:16:09;;;;;;;;;;;-0.30;99.90;;;;;;5038682;28;19904;-91
2021/12/10 02:18:35;;;;;;;;;;;-0.30;99.90;;;;;;5039211;28;19905;-91
2021/12/10 02:21:09;;;;;;;;;;;-0.30;99.90;;;;;;5040026;28;19908;-91
2021/12/10 02:23:39;;;;;;;;;;;-0.30;99.90;;;;;;5043601;28;19947;-92
2021/12/10 02:26:09;;;;;;;;;;;-0.30;99.90;;;;;;5043674;28;19909;-92
2021/12/10 02:28:39;;;;;;;;;;;-0.40;99.90;;;;;;5042546;28;19915;-91
2021/12/10 02:31:14;;;;;;;;;;;-0.70;99.90;;;;;;5043038;28;19913;-91
2021/12/10 02:33:43;;;;;;;;;;;-1.00;99.90;;;;;;5053721;28;19904;-93
2021/12/10 02:36:16;;;;;;;;;;;-1.20;99.90;;;;;;5050631;28;19916;-91
2021/12/10 02:38:48;;;;;;;;;;;-1.10;99.90;;;;;;5042593;28;19904;-92
2021/12/10 02:41:25;;;;;;;;;;;-1.10;99.90;;;;;;5044064;28;19905;-91
2021/12/10 02:44:01;;;;;;;;;;;-0.80;99.90;;;;;;5043732;28;19917;-92
2021/12/10 02:46:35;;;;;;;;;;;-0.60;99.90;;;;;;5054383;28;20294;-91
2021/12/10 02:49:11;;;;;;;;;;;-0.50;99.90;;;;;;5060584;28;19912;-92
2021/12/10 02:51:40;;;;;;;;;;;-0.60;99.90;;;;;;5044577;28;19905;-91
2021/12/10 02:54:16;;;;;;;;;;;-0.50;99.90;;;;;;5044192;28;20006;-91
2021/12/10 02:56:54;;;;;;;;;;;-0.50;99.90;;;;;;5044050;28;19965;-92
2021/12/10 02:59:20;;;;;;;;;;;-0.40;99.90;;;;;;5042721;28;19905;-91
2021/12/10 03:01:51;;;;;;;;;;;-0.40;99.90;;;;;;5044256;28;19920;-91
2021/12/10 03:04:23;;;;;;;;;;;-0.40;99.90;;;;;;5044136;28;19919;-91
2021/12/10 03:07:02;;;;;;;;;;;-0.40;99.90;;;;;;5044592;28;19904;-92
2021/12/10 03:09:36;;;;;;;;;;;-0.30;99.90;;;;;;5045189;28;19905;-91
2021/12/10 03:12:05;;;;;;;;;;;-0.20;99.90;;;;;;5043865;28;20369;-91
2021/12/10 03:14:33;;;;;;;;;;;-0.10;99.90;;;;;;5043863;28;19905;-92
2021/12/10 03:17:06;;;;;;;;;;;-0.10;99.90;;;;;;5055819;28;19991;-92
2021/12/10 03:19:32;;;;;;;;;;;-0.20;99.90;;;;;;5043954;28;19909;-91
2021/12/10 03:22:03;;;;;;;;;;;-0.20;99.90;;;;;;5042986;28;19966;-93
2021/12/10 03:24:34;;;;;;;;;;;-0.40;99.90;;;;;;5042320;28;19999;-91
2021/12/10 03:27:05;;;;;;;;;;;-0.70;99.90;;;;;;5056386;28;19955;-91
2021/12/10 03:29:38;;;;;;;;;;;-0.80;99.90;;;;;;5043067;28;20003;-92
2021/12/10 03:32:08;;;;;;;;;;;-0.60;99.90;;;;;;5043579;28;19904;-92
2021/12/10 03:34:34;;;;;;;;;;;-0.60;99.90;;;;;;5042232;28;19905;-91
2021/12/10 03:37:01;;;;;;;;;;;-0.50;99.90;;;;;;5043774;28;19905;-91
2021/12/10 03:39:27;;;;;;;;;;;-0.60;99.90;;;;;;5043861;28;19905;-93
2021/12/10 03:41:54;;;;;;;;;;;-0.70;99.90;;;;;;5043259;28;19912;-92
2021/12/10 03:44:20;;;;;;;;;;;-0.60;99.90;;;;;;5043802;28;20316;-91
2021/12/10 03:46:46;;;;;;;;;;;-0.60;99.90;;;;;;5042695;28;19912;-92
2021/12/10 03:49:11;;;;;;;;;;;-0.60;99.90;;;;;;5043604;28;19905;-91
2021/12/10 03:51:37;;;;;;;;;;;-0.60;99.90;;;;;;5043896;28;19911;-91
2021/12/10 03:54:04;;;;;;;;;;;-0.70;99.90;;;;;;5043569;28;19911;-92
2021/12/10 03:56:30;;;;;;;;;;;-0.60;99.90;;;;;;5043585;28;19904;-92
2021/12/10 03:58:59;;;;;;;;;;;-0.70;99.90;;;;;;5045232;28;19905;-92
2021/12/10 04:01:27;;;;;;;;;;;-0.60;99.90;;;;;;5042929;28;19905;-92
2021/12/10 04:03:53;;;;;;;;;;;-0.60;99.90;;;;;;5043364;28;20289;-92
2021/12/10 04:06:19;;;;;;;;;;;-0.50;99.90;;;;;;5042887;28;19967;-93
2021/12/10 04:08:45;;;;;;;;;;;-0.50;99.90;;;;;;5043505;28;19905;-93
2021/12/10 04:11:15;;;;;;;;;;;-0.50;99.90;;;;;;5043486;28;19954;-93
2021/12/10 04:13:41;;;;;;;;;;;-0.40;99.90;;;;;;5044861;28;20376;-93
2021/12/10 04:16:06;;;;;;;;;;;-0.70;99.90;;;;;;5041714;28;19905;-93
2021/12/10 04:18:35;;;;;;;;;;;-0.60;99.90;;;;;;5042765;28;19905;-94
2021/12/10 04:21:01;;;;;;;;;;;-0.50;99.90;;;;;;5042331;28;19952;-94
2021/12/10 04:23:26;;;;;;;;;;;-0.60;99.90;;;;;;5042528;28;19920;-93
2021/12/10 04:25:53;;;;;;;;;;;-0.80;99.90;;;;;;5041432;28;19904;-93
2021/12/10 04:28:20;;;;;;;;;;;-0.90;99.90;;;;;;5042176;28;19915;-92
2021/12/10 04:30:46;;;;;;;;;;;-0.90;99.90;;;;;;5042519;28;19954;-93
2021/12/10 04:33:15;;;;;;;;;;;-1.00;99.90;;;;;;5050045;28;19963;-93
2021/12/10 04:35:49;;;;;;;;;;;-1.10;99.90;;;;;;5055415;28;19903;-93
2021/12/10 04:38:25;;;;;;;;;;;-1.00;99.90;;;;;;5049002;28;19974;-93
2021/12/10 04:41:04;;;;;;;;;;;;;;;;;;;;;
2021/12/10 04:43:47;;;;;;;;;;;-0.80;99.90;;;;;;5058275;28;19908;-93
2021/12/10 04:46:24;;;;;;;;;;;-0.80;99.90;;;;;;5040342;28;19958;-92
2021/12/10 04:49:00;;;;;;;;;;;-1.10;99.90;;;;;;5040432;28;20419;-94
2021/12/10 04:51:30;;;;;;;;;;;-1.10;99.90;;;;;;5039908;28;19948;-94
2021/12/10 04:54:02;;;;;;;;;;;-1.10;99.90;;;;;;5041475;28;20297;-93
2021/12/10 04:56:38;;;;;;;;;;;-1.10;99.90;;;;;;5049971;28;19951;-93
2021/12/10 04:59:23;;;;;;;;;;;-1.20;99.90;;;;;;5045089;28;20353;-93
2021/12/10 05:01:54;;;;;;;;;;;-1.30;99.90;;;;;;5050868;28;19905;-94
2021/12/10 05:04:40;;;;;;;;;;;-1.50;99.90;;;;;;5051614;28;19930;-93
2021/12/10 05:07:16;;;;;;;;;;;-1.30;99.90;;;;;;5050615;28;19912;-93
2021/12/10 05:09:47;;;;;;;;;;;-1.30;99.90;;;;;;5049809;28;19987;-93
2021/12/10 05:12:20;;;;;;;;;;;-1.10;99.90;;;;;;5039754;28;19905;-93
2021/12/10 05:14:59;;;;;;;;;;;;;;;;;;;;;
2021/12/10 05:17:30;;;;;;;;;;;-0.90;99.90;;;;;;5056867;28;19905;-92
2021/12/10 05:20:00;;;;;;;;;;;-1.00;99.90;;;;;;5039941;28;19909;-93
2021/12/10 05:22:35;;;;;;;;;;;-1.10;99.90;;;;;;5040181;28;19964;-93
2021/12/10 05:25:19;;;;;;;;;;;-1.30;99.90;;;;;;5041339;28;19915;-93
2021/12/10 05:27:48;;;;;;;;;;;-1.20;99.90;;;;;;5040181;28;19947;-93
2021/12/10 05:30:38;;;;;;;;;;;-1.30;99.90;;;;;;5039093;28;20007;-93
2021/12/10 05:33:18;;;;;;;;;;;-1.40;99.90;;;;;;5040697;28;19940;-93
2021/12/10 05:35:52;;;;;;;;;;;-1.30;99.90;;;;;;5039370;28;19912;-93
2021/12/10 05:38:19;;;;;;;;;;;-1.40;99.90;;;;;;5039322;28;19947;-93
2021/12/10 05:40:45;;;;;;;;;;;-1.60;99.90;;;;;;5039847;28;20270;-94
2021/12/10 05:43:11;;;;;;;;;;;-1.50;99.90;;;;;;5040422;28;20354;-92
2021/12/10 05:45:37;;;;;;;;;;;-1.70;99.90;;;;;;5039457;28;19905;-93
2021/12/10 05:48:04;;;;;;;;;;;-1.80;99.90;;;;;;5040391;28;19916;-94
2021/12/10 05:50:29;;;;;;;;;;;-1.80;99.90;;;;;;5040442;28;20277;-93
2021/12/10 05:52:55;;;;;;;;;;;-1.90;99.90;;;;;;5056623;28;19908;-93
2021/12/10 05:55:33;;;;;;;;;;;-1.90;99.90;;;;;;5044734;28;19940;-94
2021/12/10 05:58:22;;;;;;;;;;;-1.80;99.90;;;;;;5048231;28;19905;-93
2021/12/10 06:03:53;;;;;;;;;;;-1.70;99.90;;;;;;5059530;28;19909;-93
2021/12/10 06:06:28;;;;;;;;;;;-1.80;99.90;;;;;;5032029;28;19912;-94
2021/12/10 06:08:58;;;;;;;;;;;-1.70;99.90;;;;;;5028290;28;19934;-93
2021/12/10 06:11:29;;;;;;;;;;;-1.90;99.90;;;;;;5028256;28;19952;-92
2021/12/10 06:14:04;;;;;;;;;;;-1.90;99.90;;;;;;5026609;28;19905;-93
2021/12/10 06:16:52;;;;;;;;;;;-1.90;99.90;;;;;;5029524;28;19909;-93
2021/12/10 06:19:22;;;;;;;;;;;-1.90;99.90;;;;;;5025372;28;19909;-94
2021/12/10 06:22:00;;;;;;;;;;;-1.90;99.90;;;;;;5037196;28;19904;-91
2021/12/10 06:24:59;;;;;;;;;;;-1.90;99.90;;;;;;5062622;28;19909;-93
2021/12/10 06:27:46;;;;;;;;;;;;;;;;;;;;;
2021/12/10 06:31:30;;;;;;;;;;;;;;;;;;;;;
2021/12/10 06:37:38;;;;;;;;;;;-2.20;99.90;;;;;;5010695;22;19928;-74
2021/12/10 06:40:05;;;;;;;;;;;-2.00;99.90;;;;;;5017268;28;19909;-74
2021/12/10 06:42:31;;;;;;;;;;;-1.90;99.90;;;;;;5017651;28;19905;-74
2021/12/10 06:44:57;;;;;;;;;;;-1.90;99.90;;;;;;5000220;28;19975;-74
2021/12/10 06:47:22;;;;;;;;;;;-2.40;99.90;;;;;;5017571;28;19954;-74
2021/12/10 06:49:48;;;;;;;;;;;-2.90;99.90;;;;;;5021926;28;19951;-74
2021/12/10 06:52:14;;;;;;;;;;;-3.00;99.90;;;;;;5015302;28;19905;-74
2021/12/10 06:54:40;;;;;;;;;;;-3.30;99.90;;;;;;4985719;28;19912;-73
2021/12/10 06:57:05;;;;;;;;;;;-3.30;99.90;;;;;;5030739;28;20388;-74
2021/12/10 06:59:31;;;;;;;;;;;-3.10;99.90;;;;;;5000569;28;19909;-74
2021/12/10 07:01:56;;;;;;;;;;;-2.80;99.90;;;;;;4992215;28;19912;-74
2021/12/10 07:04:22;;;;;;;;;;;-2.70;99.90;;;;;;4982132;28;19956;-74
2021/12/10 07:06:49;;;;;;;;;;;-2.30;99.90;;;;;;5003401;28;19959;-74
2021/12/10 07:09:19;;;;;;;;;;;-2.20;99.90;;;;;;4996261;28;19946;-74
2021/12/10 07:11:45;;;;;;;;;;;-2.30;99.90;;;;;;5042715;22;19932;-76
2021/12/10 07:14:11;;;;;;;;;;;-2.40;99.90;;;;;;5014310;28;19905;-77
2021/12/10 07:16:37;;;;;;;;;;;-2.60;99.90;;;;;;5033691;28;19928;-77
2021/12/10 07:19:04;;;;;;;;;;;-2.80;99.90;;;;;;5034149;28;20352;-76
2021/12/10 07:21:31;;;;;;;;;;;-2.90;99.90;;;;;;5033676;28;20010;-77
2021/12/10 07:23:59;;;;;;;;;;;-2.70;99.90;;;;;;5034254;28;19909;-77
2021/12/10 07:26:24;;;;;;;;;;;-2.70;99.90;;;;;;5015847;28;19905;-77
2021/12/10 07:28:50;;;;;;;;;;;-2.60;99.90;;;;;;5004701;28;19916;-77
2021/12/10 07:31:16;;;;;;;;;;;-2.50;99.90;;;;;;5022604;28;19911;-77
2021/12/10 07:33:41;;;;;;;;;;;-2.60;99.90;;;;;;5016532;28;19905;-77
2021/12/10 07:36:07;;;;;;;;;;;-2.50;99.90;;;;;;5014830;28;19909;-76
2021/12/10 07:38:33;;;;;;;;;;;-2.70;99.90;;;;;;5033746;28;20253;-76
2021/12/10 07:40:59;;;;;;;;;;;-2.90;99.90;;;;;;5033213;28;19905;-77
2021/12/10 07:43:25;;;;;;;;;;;-3.00;99.90;;;;;;5016128;28;20322;-77
2021/12/10 07:45:51;;;;;;;;;;;-3.00;99.90;;;;;;5032424;28;19959;-76
2021/12/10 07:48:19;;;;;;;;;;;-3.00;99.90;;;;;;5016128;28;19909;-77
2021/12/10 07:50:53;;;;;;;;;;;-3.00;99.90;;;;;;5033546;28;20276;-78
2021/12/10 07:53:20;;;;;;;;;;;-3.00;99.90;;;;;;5014583;28;19913;-77
2021/12/10 07:55:45;;;;;;;;;;;-2.90;99.90;;;;;;5030955;28;20011;-77
2021/12/10 07:58:11;;;;;;;;;;;-2.60;99.90;;;;;;5031468;28;20460;-77
2021/12/10 08:00:39;;;;;;;;;;;-2.80;99.90;;;;;;5014882;28;19905;-77
2021/12/10 08:03:05;;;;;;;;;;;-2.50;99.90;;;;;;5030636;28;19971;-80
2021/12/10 08:05:32;;;;;;;;;;;-2.30;99.90;;;;;;5027220;28;19905;-77
2021/12/10 08:07:58;;;;;;;;;;;-2.30;99.90;;;;;;5015595;28;19905;-78
2021/12/10 08:10:24;;;;;;;;;;;-2.50;99.90;;;;;;5032490;28;19917;-77
2021/12/10 08:12:50;;;;;;;;;;;-2.40;99.90;;;;;;5019380;28;20383;-78
2021/12/10 08:15:16;;;;;;;;;;;-2.20;99.90;;;;;;5032700;28;20395;-78
2021/12/10 08:17:42;;;;;;;;;;;-1.90;99.90;;;;;;5031905;28;19966;-78
2021/12/10 08:20:09;;;;;;;;;;;-2.10;99.90;;;;;;5031862;28;19920;-77
2021/12/10 08:22:35;;;;;;;;;;;-1.90;99.90;;;;;;5031920;28;19988;-77
2021/12/10 08:25:00;;;;;;;;;;;-1.90;99.90;;;;;;5031973;28;20007;-78
2021/12/10 08:27:26;;;;;;;;;;;-1.60;99.90;;;;;;5021954;28;19958;-78
2021/12/10 08:29:53;;;;;;;;;;;-1.50;99.90;;;;;;5031980;28;20411;-77
2021/12/10 08:32:21;;;;;;;;;;;-1.30;99.90;;;;;;5031887;28;19963;-77
2021/12/10 08:34:48;;;;;;;;;;;-1.40;99.90;;;;;;5032167;28;19952;-78
2021/12/10 08:37:13;;;;;;;;;;;-1.40;99.90;;;;;;5031418;28;19911;-79
2021/12/10 08:39:39;;;;;;;;;;;-1.10;99.90;;;;;;5033202;28;19908;-77
2021/12/10 08:42:06;;;;;;;;;;;-0.90;99.90;;;;;;5013686;28;19908;-76
2021/12/10 08:44:31;;;;;;;;;;;-1.00;99.90;;;;;;5031876;28;19909;-77
2021/12/10 08:46:58;;;;;;;;;;;-0.70;99.90;;;;;;5030977;28;19975;-76
2021/12/10 08:49:23;;;;;;;;;;;-0.80;99.90;;;;;;5024931;28;20395;-77
2021/12/10 08:51:51;;;;;;;;;;;-1.00;99.90;;;;;;5018462;28;20011;-78
2021/12/10 08:54:18;;;;;;;;;;;-0.70;99.90;;;;;;5017232;28;20421;-77
2021/12/10 08:56:45;;;;;;;;;;;-0.50;99.90;;;;;;5031416;28;19904;-78
2021/12/10 08:59:12;;;;;;;;;;;-0.40;99.90;;;;;;5016319;28;19920;-77
2021/12/10 09:01:41;;;;;;;;;;;-0.50;99.90;;;;;;5030720;28;19959;-78
2021/12/10 09:04:08;;;;;;;;;;;-0.50;99.90;;;;;;5031097;28;19963;-79
2021/12/10 09:06:36;;;;;;;;;;;-0.40;99.90;;;;;;5030949;28;19905;-78
2021/12/10 09:09:03;;;;;;;;;;;-0.30;99.90;;;;;;5031036;28;20027;-78
2021/12/10 09:11:30;;;;;;;;;;;-0.50;99.90;;;;;;5031314;28;20399;-78
2021/12/10 09:13:55;;;;;;;;;;;-0.50;99.90;;;;;;5030807;28;19940;-78
2021/12/10 09:16:25;;;;;;;;;;;-0.30;99.90;;;;;;5023527;28;19936;-78
2021/12/10 09:18:53;;;;;;;;;;;-0.30;99.90;;;;;;5017726;28;19958;-77
2021/12/10 09:21:19;;;;;;;;;;;-0.20;99.90;;;;;;5031438;28;20466;-78
2021/12/10 09:23:45;;;;;;;;;;;0.10;99.90;;;;;;5030356;28;19992;-78
2021/12/10 09:26:12;;;;;;;;;;;0.90;99.90;;;;;;5031989;28;19940;-78
2021/12/10 09:28:38;;;;;;;;;;;1.70;99.90;;;;;;5031576;28;20319;-78
2021/12/10 09:31:04;;;;;;;;;;;2.00;99.90;;;;;;5027002;28;19912;-78
2021/12/10 09:33:31;;;;;;;;;;;2.20;99.90;;;;;;5018316;28;19905;-78
2021/12/10 09:35:57;;;;;;;;;;;1.70;99.90;;;;;;5021891;28;19905;-77
2021/12/10 09:38:24;;;;;;;;;;;1.20;99.90;;;;;;5030764;28;19955;-78
2021/12/10 09:40:52;;;;;;;;;;;1.10;99.90;;;;;;5031652;28;19905;-78
2021/12/10 09:43:18;;;;;;;;;;;0.90;99.90;;;;;;5030437;28;19909;-78
2021/12/10 09:45:44;;;;;;;;;;;0.90;99.90;;;;;;5030394;28;19916;-78
2021/12/10 09:48:11;;;;;;;;;;;0.70;99.90;;;;;;5017506;28;19971;-79
2021/12/10 09:50:39;;;;;;;;;;;0.60;99.90;;;;;;5032636;28;19913;-77
2021/12/10 09:53:05;;;;;;;;;;;0.40;99.90;;;;;;5031764;28;19909;-77
2021/12/10 09:55:31;;;;;;;;;;;0.20;99.90;;;;;;5031122;28;19905;-78
2021/12/10 09:57:57;;;;;;;;;;;0.20;99.90;;;;;;5030865;28;19992;-77
2021/12/10 10:00:25;;;;;;;;;;;0.30;99.90;;;;;;5021264;28;19909;-76
2021/12/10 10:02:51;;;;;;;;;;;0.50;99.90;;;;;;4998719;28;20792;-77
2021/12/10 10:05:18;;;;;;;;;;;0.70;99.90;;;;;;5030917;28;19906;-77
2021/12/10 10:07:50;;;;;;;;;;;0.70;99.90;;;;;;5014950;28;20423;-77
2021/12/10 10:10:18;;;;;;;;;;;0.70;99.90;;;;;;5026642;28;20249;-76
2021/12/10 10:12:45;;;;;;;;;;;0.60;99.90;;;;;;5024443;28;19909;-77
2021/12/10 10:15:12;;;;;;;;;;;0.70;99.90;;;;;;5030656;28;19917;-76
2021/12/10 10:17:38;;;;;;;;;;;0.70;99.90;;;;;;5002193;28;19955;-78
2021/12/10 10:20:05;;;;;;;;;;;0.50;99.90;;;;;;5030606;28;19941;-78
2021/12/10 10:22:31;;;;;;;;;;;0.60;99.90;;;;;;5030795;28;20324;-77
2021/12/10 10:24:57;;;;;;;;;;;0.30;99.90;;;;;;5030303;28;19952;-77
2021/12/10 10:27:28;;;;;;;;;;;0.20;99.90;;;;;;5021416;28;19905;-76
2021/12/10 10:30:01;;;;;;;;;;;0.20;99.90;;;;;;5017776;28;19996;-78
2021/12/10 10:32:29;;;;;;;;;;;0.50;99.90;;;;;;5030648;28;19905;-77
2021/12/10 10:34:58;;;;;;;;;;;0.40;99.90;;;;;;5017418;28;19916;-77
2021/12/10 10:37:24;;;;;;;;;;;0.50;99.90;;;;;;5019821;28;20364;-77
2021/12/10 10:39:51;;;;;;;;;;;0.60;99.90;;;;;;5018052;28;19909;-77
2021/12/10 10:42:20;;;;;;;;;;;0.70;99.90;;;;;;5020548;28;19905;-77
2021/12/10 10:44:46;;;;;;;;;;;0.80;99.90;;;;;;5033503;28;19908;-76
2021/12/10 10:47:12;;;;;;;;;;;0.70;99.90;;;;;;5033944;28;20312;-77
2021/12/10 10:49:43;;;;;;;;;;;0.80;99.90;;;;;;5033660;28;19996;-77
2021/12/10 10:52:14;;;;;;;;;;;0.90;99.90;;;;;;5033498;28;19905;-77
2021/12/10 10:54:40;;;;;;;;;;;0.80;99.90;;;;;;5014237;28;19921;-77
2021/12/10 10:57:17;;;;;;;;;;;1.00;99.90;;;;;;5034011;28;19912;-78
2021/12/10 10:59:43;;;;;;;;;;;1.00;99.90;;;;;;5033166;28;19920;-78
2021/12/10 11:02:10;;;;;;;;;;;1.10;99.90;;;;;;5036255;28;20380;-77
2021/12/10 11:04:45;;;;;;;;;;;1.20;99.90;;;;;;5026450;28;19916;-77
2021/12/10 11:07:13;;;;;;;;;;;1.30;99.90;;;;;;5019262;28;20195;-77
2021/12/10 11:09:47;;;;;;;;;;;1.20;99.90;;;;;;5032611;28;20356;-77
2021/12/10 11:12:20;;;;;;;;;;;1.10;99.90;;;;;;5020075;28;19952;-77
2021/12/10 11:14:49;;;;;;;;;;;0.90;99.90;;;;;;5027752;28;19959;-76
2021/12/10 11:17:26;;;;;;;;;;;1.00;99.90;;;;;;5029273;28;20356;-77
2021/12/10 11:19:54;;;;;;;;;;;0.90;99.90;;;;;;5022721;28;19913;-77
2021/12/10 11:22:22;;;;;;;;;;;1.10;99.90;;;;;;5032992;28;19912;-77
2021/12/10 11:24:51;;;;;;;;;;;1.20;99.90;;;;;;5020113;28;19909;-77
2021/12/10 11:27:17;;;;;;;;;;;1.30;99.90;;;;;;5032499;28;20261;-77
2021/12/10 11:29:50;;;;;;;;;;;1.30;99.90;;;;;;5032260;28;20352;-76
2021/12/10 11:32:27;;;;;;;;;;;1.20;99.90;;;;;;5032802;28;19912;-77
2021/12/10 11:35:02;;;;;;;;;;;1.20;99.90;;;;;;5014269;28;19951;-76
2021/12/10 11:37:39;;;;;;;;;;;1.40;99.90;;;;;;5032627;28;19911;-76
2021/12/10 11:40:06;;;;;;;;;;;1.50;99.90;;;;;;5003460;28;19951;-76
2021/12/10 11:42:46;;;;;;;;;;;1.40;99.90;;;;;;5024131;28;19959;-76
2021/12/10 11:45:44;;;;;;;;;;;1.50;99.90;;;;;;5032074;28;19912;-77
2021/12/10 11:48:18;;;;;;;;;;;1.30;99.90;;;;;;5013311;28;19935;-77
2021/12/10 11:50:46;;;;;;;;;;;1.40;99.90;;;;;;5014630;28;19911;-77
2021/12/10 11:53:13;;;;;;;;;;;1.30;99.90;;;;;;5019222;28;19925;-76
2021/12/10 11:56:03;;;;;;;;;;;1.30;99.90;;;;;;5031306;28;20435;-78
2021/12/10 11:58:29;;;;;;;;;;;1.40;99.90;;;;;;5015053;28;19915;-77
2021/12/10 12:00:55;;;;;;;;;;;1.50;99.90;;;;;;5031510;28;20003;-78
2021/12/10 12:03:23;;;;;;;;;;;1.60;99.90;;;;;;5024786;28;19959;-77
2021/12/10 12:05:49;;;;;;;;;;;1.60;99.90;;;;;;5031647;28;20371;-78
2021/12/10 12:08:17;;;;;;;;;;;1.80;99.90;;;;;;5032127;28;19912;-78
2021/12/10 12:10:55;;;;;;;;;;;1.80;99.90;;;;;;5022179;28;20007;-77
2021/12/10 12:13:31;;;;;;;;;;;1.90;99.90;;;;;;5032653;28;19909;-78
2021/12/10 12:15:56;;;;;;;;;;;2.00;99.90;;;;;;5032077;28;20399;-78
2021/12/10 12:18:48;;;;;;;;;;;2.10;99.90;;;;;;5031079;28;19905;-77
2021/12/10 12:27:08;;;;;;;;;;;1.70;99.90;;;;;;4940470;28;19950;-77
2021/12/10 12:29:39;;;;;;;;;;;1.40;99.90;;;;;;5025860;28;19905;-77
2021/12/10 12:32:10;;;;;;;;;;;1.40;99.90;;;;;;5018138;28;20280;-78
2021/12/10 12:34:36;;;;;;;;;;;1.60;99.90;;;;;;5031978;28;19905;-77
2021/12/10 12:37:06;;;;;;;;;;;1.50;99.90;;;;;;5022413;28;19912;-77
2021/12/10 12:39:35;;;;;;;;;;;1.40;99.90;;;;;;5032089;28;20383;-77
2021/12/10 12:42:03;;;;;;;;;;;1.50;99.90;;;;;;5003372;28;20011;-78
2021/12/10 12:44:30;;;;;;;;;;;1.40;99.90;;;;;;5027598;28;19915;-77
2021/12/10 12:46:59;;;;;;;;;;;1.40;99.90;;;;;;5031300;28;19913;-77
2021/12/10 12:49:25;;;;;;;;;;;1.40;99.90;;;;;;5025793;28;20398;-77
2021/12/10 12:52:00;;;;;;;;;;;1.40;99.90;;;;;;5031480;28;19992;-77
2021/12/10 12:54:26;;;;;;;;;;;1.70;99.90;;;;;;5027853;28;20265;-77
2021/12/10 12:56:51;;;;;;;;;;;1.50;99.90;;;;;;5031038;28;19909;-77
2021/12/10 12:59:17;;;;;;;;;;;1.50;99.90;;;;;;5031893;28;19913;-77
2021/12/10 13:01:49;;;;;;;;;;;1.60;99.90;;;;;;5023152;28;19967;-78
2021/12/10 13:04:17;;;;;;;;;;;1.70;99.90;;;;;;5031792;28;19971;-78
2021/12/10 13:06:59;;;;;;;;;;;1.60;99.90;;;;;;5031911;28;20357;-78
2021/12/10 13:09:37;;;;;;;;;;;1.50;99.90;;;;;;5019428;28;19905;-80
2021/12/10 13:12:09;;;;;;;;;;;1.60;99.90;;;;;;5014418;28;19913;-78
2021/12/10 13:14:46;;;;;;;;;;;1.80;99.90;;;;;;5021765;28;19940;-77
2021/12/10 13:17:13;;;;;;;;;;;2.00;99.90;;;;;;5030495;28;19917;-78
2021/12/10 13:19:40;;;;;;;;;;;2.10;99.90;;;;;;5030837;28;20279;-77
2021/12/10 13:22:14;;;;;;;;;;;2.30;99.90;;;;;;5030391;28;19916;-78
2021/12/10 13:24:42;;;;;;;;;;;2.50;99.90;;;;;;5028420;28;19909;-76
2021/12/10 13:27:08;;;;;;;;;;;2.70;99.90;;;;;;5030478;28;19911;-77
2021/12/10 13:29:35;;;;;;;;;;;2.90;99.90;;;;;;5026082;28;19905;-77
2021/12/10 13:32:01;;;;;;;;;;;3.10;99.90;;;;;;5028228;28;19913;-76
2021/12/10 13:34:27;;;;;;;;;;;3.30;99.90;;;;;;5030972;28;19940;-77
2021/12/10 13:36:53;;;;;;;;;;;3.40;99.90;;;;;;5012557;28;19959;-77
2021/12/10 13:39:19;;;;;;;;;;;3.40;99.90;;;;;;5030709;28;19912;-77
2021/12/10 13:41:44;;;;;;;;;;;3.50;99.90;;;;;;5030082;28;20117;-77
2021/12/10 13:44:21;;;;;;;;;;;3.50;99.90;;;;;;5029599;28;20024;-78
2021/12/10 13:46:50;;;;;;;;;;;3.40;99.90;;;;;;5029170;28;19909;-77
2021/12/10 13:49:18;;;;;;;;;;;3.40;99.90;;;;;;5021168;28;20297;-77
2021/12/10 13:51:45;;;;;;;;;;;3.20;99.90;;;;;;5011198;28;19912;-77
2021/12/10 13:54:15;;;;;;;;;;;3.30;99.90;;;;;;5029533;28;19912;-78
2021/12/10 13:56:47;;;;;;;;;;;3.20;99.90;;;;;;5017629;28;19926;-77
2021/12/10 13:59:13;;;;;;;;;;;3.30;99.90;;;;;;5024852;28;19999;-77
2021/12/10 14:01:41;;;;;;;;;;;3.40;99.90;;;;;;5013139;28;20408;-77
2021/12/10 14:04:09;;;;;;;;;;;3.40;99.90;;;;;;5016954;28;19915;-77
2021/12/10 14:06:44;;;;;;;;;;;3.20;99.90;;;;;;5024112;28;20377;-76
2021/12/10 14:09:13;;;;;;;;;;;3.20;99.90;;;;;;5015640;28;20429;-77
2021/12/10 14:11:55;;;;;;;;;;;3.10;99.90;;;;;;5030710;28;20270;-78
2021/12/10 14:14:33;;;;;;;;;;;2.90;99.90;;;;;;5030918;28;19995;-78
2021/12/10 14:17:03;;;;;;;;;;;2.70;99.90;;;;;;5031264;28;20453;-77
2021/12/10 14:19:37;;;;;;;;;;;2.60;99.90;;;;;;5035008;28;19905;-78
2021/12/10 14:22:04;;;;;;;;;;;2.50;99.90;;;;;;5019733;28;19905;-77
2021/12/10 14:24:51;;;;;;;;;;;2.40;99.90;;;;;;5021809;28;19909;-77
2021/12/10 14:27:24;;;;;;;;;;;2.30;99.90;;;;;;5031716;28;19909;-76
2021/12/10 14:30:09;;;;;;;;;;;2.30;99.90;;;;;;5029383;28;20339;-77
2021/12/10 14:32:35;;;;;;;;;;;2.40;99.90;;;;;;5019486;28;19960;-76
2021/12/10 14:35:04;;;;;;;;;;;2.30;99.90;;;;;;5022944;28;19997;-77
2021/12/10 14:37:45;;;;;;;;;;;2.20;99.90;;;;;;5033523;28;19941;-76
2021/12/10 14:40:11;;;;;;;;;;;2.20;99.90;;;;;;5029749;28;19962;-77
2021/12/10 14:42:37;;;;;;;;;;;2.20;99.90;;;;;;5029518;28;20284;-76
2021/12/10 14:45:10;;;;;;;;;;;2.10;99.90;;;;;;5033497;28;19974;-76
2021/12/10 14:47:36;;;;;;;;;;;2.10;99.90;;;;;;5033417;28;19912;-77
2021/12/10 14:50:04;;;;;;;;;;;2.10;99.90;;;;;;5033999;28;19912;-78
2021/12/10 14:52:31;;;;;;;;;;;2.00;99.90;;;;;;5019627;28;19909;-77
2021/12/10 14:54:57;;;;;;;;;;;1.90;99.90;;;;;;5033926;28;19959;-77
2021/12/10 14:57:42;;;;;;;;;;;1.90;99.90;;;;;;5015976;28;20396;-77
2021/12/10 15:00:38;;;;;;;;;;;1.80;99.90;;;;;;5021354;28;19963;-77
2021/12/10 15:03:05;;;;;;;;;;;1.70;99.90;;;;;;5012126;28;20167;-77
2021/12/10 15:05:36;;;;;;;;;;;1.60;99.90;;;;;;5033380;28;20296;-77